sensor_id;sensor_type;location;lat;lon;timestamp;P1;P2;P0
66155;PMS5003;52957;50.848;20.656;2023-12-28T00:00:05;95;82;46
66155;PMS5003;52957;50.848;20.656;2023-12-28T00:15:02;105;87;50
66155;PMS5003;52957;50.848;20.656;2023-12-28T00:30:10;105;87;50
66155;PMS5003;52957;50.848;20.656;2023-12-28T00:45:06;60;47;27
66155;PMS5003;52957;50.848;20.656;2023-12-28T01:00:11;60;47;27
66155;PMS5003;52957;50.848;20.656;2023-12-28T01:15:05;62;50;29
66155;PMS5003;52957;50.848;20.656;2023-12-28T01:30:08;62;50;29
66155;PMS5003;52957;50.848;20.656;2023-12-28T01:45:02;59;48;29
66155;PMS5003;52957;50.848;20.656;2023-12-28T02:00:08;59;48;29
66155;PMS5003;52957;50.848;20.656;2023-12-28T02:15:01;66;53;30
66155;PMS5003;52957;50.848;20.656;2023-12-28T02:30:11;66;53;30
66155;PMS5003;52957;50.848;20.656;2023-12-28T02:45:06;69;55;34
66155;PMS5003;52957;50.848;20.656;2023-12-28T03:00:09;69;55;34
66155;PMS5003;52957;50.848;20.656;2023-12-28T03:15:02;63;49;29
66155;PMS5003;52957;50.848;20.656;2023-12-28T03:30:04;63;49;29
66155;PMS5003;52957;50.848;20.656;2023-12-28T03:45:05;77;59;34
66155;PMS5003;52957;50.848;20.656;2023-12-28T04:00:05;77;59;34
66155;PMS5003;52957;50.848;20.656;2023-12-28T04:15:02;60;50;28
66155;PMS5003;52957;50.848;20.656;2023-12-28T04:30:06;60;50;28
66155;PMS5003;52957;50.848;20.656;2023-12-28T04:45:07;56;46;27
66155;PMS5003;52957;50.848;20.656;2023-12-28T05:00:12;56;46;27
66155;PMS5003;52957;50.848;20.656;2023-12-28T05:15:08;73;57;34
66155;PMS5003;52957;50.848;20.656;2023-12-28T05:30:05;73;57;34
66155;PMS5003;52957;50.848;20.656;2023-12-28T05:45:03;60;46;26
66155;PMS5003;52957;50.848;20.656;2023-12-28T06:00:13;60;46;26
66155;PMS5003;52957;50.848;20.656;2023-12-28T06:15:06;93;77;44
66155;PMS5003;52957;50.848;20.656;2023-12-28T06:30:04;93;77;44
66155;PMS5003;52957;50.848;20.656;2023-12-28T06:45:02;60;49;31
66155;PMS5003;52957;50.848;20.656;2023-12-28T07:00:02;60;49;31
66155;PMS5003;52957;50.848;20.656;2023-12-28T07:15:01;75;56;34
66155;PMS5003;52957;50.848;20.656;2023-12-28T07:30:10;75;56;34
66155;PMS5003;52957;50.848;20.656;2023-12-28T07:45:02;75;58;34
66155;PMS5003;52957;50.848;20.656;2023-12-28T08:00:06;75;58;34
66155;PMS5003;52957;50.848;20.656;2023-12-28T08:15:05;67;53;32
66155;PMS5003;52957;50.848;20.656;2023-12-28T08:30:04;67;53;32
66155;PMS5003;52957;50.848;20.656;2023-12-28T08:45:01;60;48;32
66155;PMS5003;52957;50.848;20.656;2023-12-28T09:00:09;60;48;32
66155;PMS5003;52957;50.848;20.656;2023-12-28T09:15:02;77;61;36
66155;PMS5003;52957;50.848;20.656;2023-12-28T09:30:10;77;61;36
66155;PMS5003;52957;50.848;20.656;2023-12-28T10:29:43;56;46;27
66155;PMS5003;52957;50.848;20.656;2023-12-28T10:30:13;56;46;27
66155;PMS5003;52957;50.848;20.656;2023-12-28T10:33:38;56;46;27
66155;PMS5003;52957;50.848;20.656;2023-12-28T10:40:03;28;26;17
66155;PMS5003;52957;50.848;20.656;2023-12-28T10:50:11;28;26;17
66155;PMS5003;52957;50.848;20.656;2023-12-28T11:00:25;28;26;17
66155;PMS5003;52957;50.848;20.656;2023-12-28T11:10:07;44;34;20
66155;PMS5003;52957;50.848;20.656;2023-12-28T11:20:06;44;34;20
66155;PMS5003;52957;50.848;20.656;2023-12-28T11:30:13;44;34;20
66155;PMS5003;52957;50.848;20.656;2023-12-28T11:40:19;40;33;20
66155;PMS5003;52957;50.848;20.656;2023-12-28T11:50:16;40;33;20
66155;PMS5003;52957;50.848;20.656;2023-12-28T12:00:08;40;33;20
66155;PMS5003;52957;50.848;20.656;2023-12-28T12:10:07;31;28;16
66155;PMS5003;52957;50.848;20.656;2023-12-28T12:20:17;31;28;16
66155;PMS5003;52957;50.848;20.656;2023-12-28T12:30:16;31;28;16
66155;PMS5003;52957;50.848;20.656;2023-12-28T12:40:09;30;29;19
66155;PMS5003;52957;50.848;20.656;2023-12-28T12:50:10;30;29;19
66155;PMS5003;52957;50.848;20.656;2023-12-28T13:00:03;30;29;19
66155;PMS5003;52957;50.848;20.656;2023-12-28T13:10:11;46;36;22
66155;PMS5003;52957;50.848;20.656;2023-12-28T13:20:05;46;36;22
66155;PMS5003;52957;50.848;20.656;2023-12-28T13:30:01;46;36;22
66155;PMS5003;52957;50.848;20.656;2023-12-28T13:40:12;49;39;23
66155;PMS5003;52957;50.848;20.656;2023-12-28T13:50:11;49;39;23
66155;PMS5003;52957;50.848;20.656;2023-12-28T14:00:07;49;39;23
66155;PMS5003;52957;50.848;20.656;2023-12-28T14:10:06;25;23;16
66155;PMS5003;52957;50.848;20.656;2023-12-28T14:20:09;25;23;16
66155;PMS5003;52957;50.848;20.656;2023-12-28T14:30:14;25;23;16
66155;PMS5003;52957;50.848;20.656;2023-12-28T14:40:19;36;29;18
66155;PMS5003;52957;50.848;20.656;2023-12-28T14:50:07;36;29;18
66155;PMS5003;52957;50.848;20.656;2023-12-28T15:00:02;36;29;18
66155;PMS5003;52957;50.848;20.656;2023-12-28T15:10:12;46;38;22
66155;PMS5003;52957;50.848;20.656;2023-12-28T15:20:15;46;38;22
66155;PMS5003;52957;50.848;20.656;2023-12-28T15:30:06;46;38;22
66155;PMS5003;52957;50.848;20.656;2023-12-28T15:34:39;46;38;22
66155;PMS5003;52957;50.848;20.656;2023-12-28T15:40:05;54;44;27
66155;PMS5003;52957;50.848;20.656;2023-12-28T15:50:11;54;44;27
66155;PMS5003;52957;50.848;20.656;2023-12-28T16:00:14;54;44;27
66155;PMS5003;52957;50.848;20.656;2023-12-28T16:40:06;42;35;22
66155;PMS5003;52957;50.848;20.656;2023-12-28T16:50:04;42;35;22
66155;PMS5003;52957;50.848;20.656;2023-12-28T17:00:06;42;35;22
66155;PMS5003;52957;50.848;20.656;2023-12-28T17:10:09;48;39;24
66155;PMS5003;52957;50.848;20.656;2023-12-28T17:20:10;48;39;24
66155;PMS5003;52957;50.848;20.656;2023-12-28T17:30:16;48;39;24
66155;PMS5003;52957;50.848;20.656;2023-12-28T17:50:13;45;37;23
66155;PMS5003;52957;50.848;20.656;2023-12-28T18:00:05;45;37;23
66155;PMS5003;52957;50.848;20.656;2023-12-28T18:20:02;56;46;28
66155;PMS5003;52957;50.848;20.656;2023-12-28T18:30:05;56;46;28
66155;PMS5003;52957;50.848;20.656;2023-12-28T18:50:14;98;85;52
66155;PMS5003;52957;50.848;20.656;2023-12-28T19:00:04;98;85;52
66155;PMS5003;52957;50.848;20.656;2023-12-28T19:20:27;95;84;50
66155;PMS5003;52957;50.848;20.656;2023-12-28T19:30:13;95;84;50
66155;PMS5003;52957;50.848;20.656;2023-12-28T19:40:12;95;84;50
66155;PMS5003;52957;50.848;20.656;2023-12-28T19:50:09;61;47;29
66155;PMS5003;52957;50.848;20.656;2023-12-28T20:00:17;61;47;29
66155;PMS5003;52957;50.848;20.656;2023-12-28T20:10:02;61;47;29
66155;PMS5003;52957;50.848;20.656;2023-12-28T20:20:07;69;53;33
66155;PMS5003;52957;50.848;20.656;2023-12-28T20:30:02;69;53;33
66155;PMS5003;52957;50.848;20.656;2023-12-28T20:40:11;69;53;33
66155;PMS5003;52957;50.848;20.656;2023-12-28T20:50:02;67;54;33
66155;PMS5003;52957;50.848;20.656;2023-12-28T21:00:04;67;54;33
66155;PMS5003;52957;50.848;20.656;2023-12-28T21:10:15;67;54;33
66155;PMS5003;52957;50.848;20.656;2023-12-28T21:20:10;60;48;29
66155;PMS5003;52957;50.848;20.656;2023-12-28T21:30:20;60;48;29
66155;PMS5003;52957;50.848;20.656;2023-12-28T21:40:02;60;48;29
66155;PMS5003;52957;50.848;20.656;2023-12-28T21:50:10;52;42;24
66155;PMS5003;52957;50.848;20.656;2023-12-28T22:00:04;52;42;24
66155;PMS5003;52957;50.848;20.656;2023-12-28T22:10:06;52;42;24
66155;PMS5003;52957;50.848;20.656;2023-12-28T22:20:06;70;54;33
66155;PMS5003;52957;50.848;20.656;2023-12-28T22:30:14;70;54;33
66155;PMS5003;52957;50.848;20.656;2023-12-28T22:40:02;70;54;33
66155;PMS5003;52957;50.848;20.656;2023-12-28T22:50:10;74;56;33
66155;PMS5003;52957;50.848;20.656;2023-12-28T23:00:34;74;56;33
66155;PMS5003;52957;50.848;20.656;2023-12-28T23:10:01;74;56;33
66155;PMS5003;52957;50.848;20.656;2023-12-28T23:20:09;72;58;39
66155;PMS5003;52957;50.848;20.656;2023-12-28T23:30:25;72;58;39
66155;PMS5003;52957;50.848;20.656;2023-12-28T23:40:14;69;54;33
66155;PMS5003;52957;50.848;20.656;2023-12-28T23:50:10;69;54;33
